sensor_id;sensor_type;location;lat;lon;timestamp;P1;durP1;ratioP1;P2;durP2;ratioP2
16352;SDS011;8286;51.274;9.542;2024-02-26T00:01:54;11.63;;;6.37;;
16352;SDS011;8286;51.274;9.542;2024-02-26T00:04:20;13.17;;;7.00;;
16352;SDS011;8286;51.274;9.542;2024-02-26T00:06:47;11.17;;;6.47;;
16352;SDS011;8286;51.274;9.542;2024-02-26T00:09:15;12.20;;;6.67;;
16352;SDS011;8286;51.274;9.542;2024-02-26T00:11:42;10.60;;;5.97;;
16352;SDS011;8286;51.274;9.542;2024-02-26T00:14:08;7.80;;;5.70;;
16352;SDS011;8286;51.274;9.542;2024-02-26T00:16:35;9.07;;;5.37;;
16352;SDS011;8286;51.274;9.542;2024-02-26T00:19:03;11.83;;;5.70;;
16352;SDS011;8286;51.274;9.542;2024-02-26T00:21:29;10.40;;;6.20;;
16352;SDS011;8286;51.274;9.542;2024-02-26T00:23:56;8.70;;;6.27;;
16352;SDS011;8286;51.274;9.542;2024-02-26T00:26:22;9.77;;;6.07;;
16352;SDS011;8286;51.274;9.542;2024-02-26T00:28:49;9.80;;;6.33;;
16352;SDS011;8286;51.274;9.542;2024-02-26T00:31:15;9.43;;;6.33;;
16352;SDS011;8286;51.274;9.542;2024-02-26T00:33:42;12.40;;;6.03;;
16352;SDS011;8286;51.274;9.542;2024-02-26T00:36:10;9.47;;;5.83;;
16352;SDS011;8286;51.274;9.542;2024-02-26T00:38:37;12.60;;;7.17;;
16352;SDS011;8286;51.274;9.542;2024-02-26T00:41:04;10.17;;;6.27;;
16352;SDS011;8286;51.274;9.542;2024-02-26T00:43:31;10.83;;;6.27;;
16352;SDS011;8286;51.274;9.542;2024-02-26T00:45:57;11.20;;;6.33;;
16352;SDS011;8286;51.274;9.542;2024-02-26T00:48:24;11.50;;;6.93;;
16352;SDS011;8286;51.274;9.542;2024-02-26T00:50:51;12.80;;;6.50;;
16352;SDS011;8286;51.274;9.542;2024-02-26T00:53:18;8.13;;;5.60;;
16352;SDS011;8286;51.274;9.542;2024-02-26T00:55:45;7.43;;;5.37;;
16352;SDS011;8286;51.274;9.542;2024-02-26T00:58:12;7.50;;;5.20;;
16352;SDS011;8286;51.274;9.542;2024-02-26T01:00:38;12.17;;;5.60;;
16352;SDS011;8286;51.274;9.542;2024-02-26T01:03:04;8.73;;;5.70;;
16352;SDS011;8286;51.274;9.542;2024-02-26T01:05:31;10.83;;;5.33;;
16352;SDS011;8286;51.274;9.542;2024-02-26T01:07:58;8.77;;;5.27;;
16352;SDS011;8286;51.274;9.542;2024-02-26T01:10:26;8.23;;;4.80;;
16352;SDS011;8286;51.274;9.542;2024-02-26T01:12:52;7.33;;;5.40;;
16352;SDS011;8286;51.274;9.542;2024-02-26T01:15:19;8.17;;;5.47;;
16352;SDS011;8286;51.274;9.542;2024-02-26T01:17:48;9.97;;;5.23;;
16352;SDS011;8286;51.274;9.542;2024-02-26T01:20:15;7.73;;;5.17;;
16352;SDS011;8286;51.274;9.542;2024-02-26T01:22:42;7.73;;;4.90;;
16352;SDS011;8286;51.274;9.542;2024-02-26T01:25:08;7.63;;;5.13;;
16352;SDS011;8286;51.274;9.542;2024-02-26T01:27:37;5.77;;;4.47;;
16352;SDS011;8286;51.274;9.542;2024-02-26T01:30:03;6.43;;;4.83;;
16352;SDS011;8286;51.274;9.542;2024-02-26T01:32:31;5.63;;;4.43;;
16352;SDS011;8286;51.274;9.542;2024-02-26T01:34:57;8.23;;;4.73;;
16352;SDS011;8286;51.274;9.542;2024-02-26T01:37:24;8.10;;;5.10;;
16352;SDS011;8286;51.274;9.542;2024-02-26T01:39:51;6.37;;;4.30;;
16352;SDS011;8286;51.274;9.542;2024-02-26T01:42:17;6.47;;;4.80;;
16352;SDS011;8286;51.274;9.542;2024-02-26T01:44:45;6.27;;;4.20;;
16352;SDS011;8286;51.274;9.542;2024-02-26T01:47:12;7.40;;;4.93;;
16352;SDS011;8286;51.274;9.542;2024-02-26T01:49:39;7.40;;;4.90;;
16352;SDS011;8286;51.274;9.542;2024-02-26T01:52:06;6.33;;;4.40;;
16352;SDS011;8286;51.274;9.542;2024-02-26T01:54:32;4.70;;;4.00;;
16352;SDS011;8286;51.274;9.542;2024-02-26T01:57:01;6.63;;;4.20;;
16352;SDS011;8286;51.274;9.542;2024-02-26T01:59:28;5.63;;;4.53;;
16352;SDS011;8286;51.274;9.542;2024-02-26T02:01:57;4.27;;;3.70;;
16352;SDS011;8286;51.274;9.542;2024-02-26T02:04:24;7.87;;;4.27;;
16352;SDS011;8286;51.274;9.542;2024-02-26T02:06:50;5.20;;;3.93;;
16352;SDS011;8286;51.274;9.542;2024-02-26T02:09:18;7.03;;;4.37;;
16352;SDS011;8286;51.274;9.542;2024-02-26T02:11:44;5.73;;;3.87;;
16352;SDS011;8286;51.274;9.542;2024-02-26T02:14:11;5.00;;;4.07;;
16352;SDS011;8286;51.274;9.542;2024-02-26T02:16:38;10.87;;;4.30;;
16352;SDS011;8286;51.274;9.542;2024-02-26T02:19:05;5.83;;;4.00;;
16352;SDS011;8286;51.274;9.542;2024-02-26T02:21:33;6.17;;;4.07;;
16352;SDS011;8286;51.274;9.542;2024-02-26T02:24:00;9.40;;;3.87;;
16352;SDS011;8286;51.274;9.542;2024-02-26T02:26:26;4.80;;;3.87;;
16352;SDS011;8286;51.274;9.542;2024-02-26T02:28:53;4.93;;;3.90;;
16352;SDS011;8286;51.274;9.542;2024-02-26T02:31:19;5.67;;;4.13;;
16352;SDS011;8286;51.274;9.542;2024-02-26T02:33:46;4.33;;;3.57;;
16352;SDS011;8286;51.274;9.542;2024-02-26T02:36:12;6.37;;;3.47;;
16352;SDS011;8286;51.274;9.542;2024-02-26T02:38:44;5.37;;;3.33;;
16352;SDS011;8286;51.274;9.542;2024-02-26T02:41:15;7.73;;;3.43;;
16352;SDS011;8286;51.274;9.542;2024-02-26T02:43:41;5.40;;;3.57;;
16352;SDS011;8286;51.274;9.542;2024-02-26T02:46:08;4.97;;;3.33;;
16352;SDS011;8286;51.274;9.542;2024-02-26T02:48:36;8.03;;;3.77;;
16352;SDS011;8286;51.274;9.542;2024-02-26T02:51:03;4.47;;;2.83;;
16352;SDS011;8286;51.274;9.542;2024-02-26T02:53:30;7.93;;;3.70;;
16352;SDS011;8286;51.274;9.542;2024-02-26T02:55:58;3.97;;;3.57;;
16352;SDS011;8286;51.274;9.542;2024-02-26T02:58:24;4.87;;;3.80;;
16352;SDS011;8286;51.274;9.542;2024-02-26T03:00:51;4.03;;;3.63;;
16352;SDS011;8286;51.274;9.542;2024-02-26T03:03:20;5.23;;;3.73;;
16352;SDS011;8286;51.274;9.542;2024-02-26T03:05:49;4.13;;;3.73;;
16352;SDS011;8286;51.274;9.542;2024-02-26T03:08:15;4.27;;;3.57;;
16352;SDS011;8286;51.274;9.542;2024-02-26T03:10:42;4.00;;;3.40;;
16352;SDS011;8286;51.274;9.542;2024-02-26T03:13:10;6.57;;;3.30;;
16352;SDS011;8286;51.274;9.542;2024-02-26T03:15:36;6.57;;;3.83;;
16352;SDS011;8286;51.274;9.542;2024-02-26T03:18:03;4.27;;;3.50;;
16352;SDS011;8286;51.274;9.542;2024-02-26T03:20:30;3.90;;;3.50;;
16352;SDS011;8286;51.274;9.542;2024-02-26T03:22:56;4.97;;;3.60;;
16352;SDS011;8286;51.274;9.542;2024-02-26T03:25:23;4.87;;;3.60;;
16352;SDS011;8286;51.274;9.542;2024-02-26T03:27:49;6.67;;;3.57;;
16352;SDS011;8286;51.274;9.542;2024-02-26T03:30:17;7.57;;;3.70;;
16352;SDS011;8286;51.274;9.542;2024-02-26T03:32:44;5.10;;;3.30;;
16352;SDS011;8286;51.274;9.542;2024-02-26T03:35:12;5.10;;;3.53;;
16352;SDS011;8286;51.274;9.542;2024-02-26T03:37:38;5.27;;;3.40;;
16352;SDS011;8286;51.274;9.542;2024-02-26T03:40:05;3.70;;;3.30;;
16352;SDS011;8286;51.274;9.542;2024-02-26T03:42:33;4.33;;;3.63;;
16352;SDS011;8286;51.274;9.542;2024-02-26T03:44:58;3.00;;;2.70;;
16352;SDS011;8286;51.274;9.542;2024-02-26T03:47:26;4.30;;;3.00;;
16352;SDS011;8286;51.274;9.542;2024-02-26T03:49:52;5.93;;;3.13;;
16352;SDS011;8286;51.274;9.542;2024-02-26T03:52:19;3.83;;;3.33;;
16352;SDS011;8286;51.274;9.542;2024-02-26T03:54:45;6.17;;;3.70;;
16352;SDS011;8286;51.274;9.542;2024-02-26T03:57:12;5.03;;;3.63;;
16352;SDS011;8286;51.274;9.542;2024-02-26T03:59:39;4.90;;;3.57;;
16352;SDS011;8286;51.274;9.542;2024-02-26T04:02:05;5.90;;;3.40;;
16352;SDS011;8286;51.274;9.542;2024-02-26T04:04:34;4.97;;;3.40;;
16352;SDS011;8286;51.274;9.542;2024-02-26T04:07:01;4.90;;;3.20;;
16352;SDS011;8286;51.274;9.542;2024-02-26T04:09:28;5.87;;;3.97;;
16352;SDS011;8286;51.274;9.542;2024-02-26T04:11:54;5.37;;;3.70;;
16352;SDS011;8286;51.274;9.542;2024-02-26T04:14:21;3.43;;;3.07;;
16352;SDS011;8286;51.274;9.542;2024-02-26T04:16:47;4.57;;;3.20;;
16352;SDS011;8286;51.274;9.542;2024-02-26T04:19:16;3.67;;;3.27;;
16352;SDS011;8286;51.274;9.542;2024-02-26T04:21:44;5.03;;;3.90;;
16352;SDS011;8286;51.274;9.542;2024-02-26T04:24:10;5.00;;;3.30;;
16352;SDS011;8286;51.274;9.542;2024-02-26T04:26:37;5.50;;;3.07;;
16352;SDS011;8286;51.274;9.542;2024-02-26T04:29:04;3.67;;;3.10;;
16352;SDS011;8286;51.274;9.542;2024-02-26T04:31:30;4.73;;;3.40;;
16352;SDS011;8286;51.274;9.542;2024-02-26T04:33:58;3.80;;;3.40;;
16352;SDS011;8286;51.274;9.542;2024-02-26T04:36:24;4.93;;;3.10;;
16352;SDS011;8286;51.274;9.542;2024-02-26T04:38:52;4.07;;;3.57;;
16352;SDS011;8286;51.274;9.542;2024-02-26T04:41:19;4.57;;;3.10;;
16352;SDS011;8286;51.274;9.542;2024-02-26T04:43:46;3.47;;;3.00;;
16352;SDS011;8286;51.274;9.542;2024-02-26T04:46:12;7.63;;;3.57;;
16352;SDS011;8286;51.274;9.542;2024-02-26T04:48:39;3.13;;;2.83;;
16352;SDS011;8286;51.274;9.542;2024-02-26T04:51:06;3.63;;;3.10;;
16352;SDS011;8286;51.274;9.542;2024-02-26T04:53:33;3.83;;;2.93;;
16352;SDS011;8286;51.274;9.542;2024-02-26T04:56:01;4.30;;;2.47;;
16352;SDS011;8286;51.274;9.542;2024-02-26T04:58:27;3.53;;;2.83;;
16352;SDS011;8286;51.274;9.542;2024-02-26T05:00:54;2.50;;;2.27;;
16352;SDS011;8286;51.274;9.542;2024-02-26T05:03:20;2.97;;;2.50;;
16352;SDS011;8286;51.274;9.542;2024-02-26T05:05:47;2.43;;;2.10;;
16352;SDS011;8286;51.274;9.542;2024-02-26T05:08:14;2.87;;;2.40;;
16352;SDS011;8286;51.274;9.542;2024-02-26T05:10:40;2.83;;;2.60;;
16352;SDS011;8286;51.274;9.542;2024-02-26T05:13:09;2.77;;;2.30;;
16352;SDS011;8286;51.274;9.542;2024-02-26T05:15:36;3.20;;;2.53;;
16352;SDS011;8286;51.274;9.542;2024-02-26T05:18:02;4.73;;;2.83;;
16352;SDS011;8286;51.274;9.542;2024-02-26T05:20:29;2.10;;;2.00;;
16352;SDS011;8286;51.274;9.542;2024-02-26T05:22:56;3.60;;;2.47;;
16352;SDS011;8286;51.274;9.542;2024-02-26T05:25:23;3.90;;;2.40;;
16352;SDS011;8286;51.274;9.542;2024-02-26T05:27:50;9.30;;;2.77;;
16352;SDS011;8286;51.274;9.542;2024-02-26T05:30:18;3.40;;;2.63;;
16352;SDS011;8286;51.274;9.542;2024-02-26T05:32:45;2.70;;;2.40;;
16352;SDS011;8286;51.274;9.542;2024-02-26T05:35:11;3.60;;;2.37;;
16352;SDS011;8286;51.274;9.542;2024-02-26T05:37:38;2.37;;;2.17;;
16352;SDS011;8286;51.274;9.542;2024-02-26T05:40:05;2.70;;;2.50;;
16352;SDS011;8286;51.274;9.542;2024-02-26T05:42:32;3.47;;;2.67;;
16352;SDS011;8286;51.274;9.542;2024-02-26T05:44:59;4.43;;;2.60;;
16352;SDS011;8286;51.274;9.542;2024-02-26T05:47:32;2.90;;;2.70;;
16352;SDS011;8286;51.274;9.542;2024-02-26T05:49:58;4.57;;;2.70;;
16352;SDS011;8286;51.274;9.542;2024-02-26T05:52:25;3.50;;;2.60;;
16352;SDS011;8286;51.274;9.542;2024-02-26T05:54:52;3.30;;;3.00;;
16352;SDS011;8286;51.274;9.542;2024-02-26T05:57:19;3.93;;;2.87;;
16352;SDS011;8286;51.274;9.542;2024-02-26T05:59:45;6.10;;;2.80;;
16352;SDS011;8286;51.274;9.542;2024-02-26T06:02:12;2.77;;;2.57;;
16352;SDS011;8286;51.274;9.542;2024-02-26T06:04:40;4.50;;;2.83;;
16352;SDS011;8286;51.274;9.542;2024-02-26T06:07:07;3.23;;;2.80;;
16352;SDS011;8286;51.274;9.542;2024-02-26T06:09:33;3.50;;;2.70;;
16352;SDS011;8286;51.274;9.542;2024-02-26T06:12:00;3.50;;;2.60;;
16352;SDS011;8286;51.274;9.542;2024-02-26T06:14:26;3.37;;;2.50;;
16352;SDS011;8286;51.274;9.542;2024-02-26T06:16:53;3.93;;;2.60;;
16352;SDS011;8286;51.274;9.542;2024-02-26T06:19:19;3.17;;;2.70;;
16352;SDS011;8286;51.274;9.542;2024-02-26T06:21:47;5.50;;;2.90;;
16352;SDS011;8286;51.274;9.542;2024-02-26T06:24:14;3.20;;;2.90;;
16352;SDS011;8286;51.274;9.542;2024-02-26T06:26:40;4.97;;;2.97;;
16352;SDS011;8286;51.274;9.542;2024-02-26T06:29:07;4.03;;;3.17;;
16352;SDS011;8286;51.274;9.542;2024-02-26T06:31:33;4.60;;;2.90;;
16352;SDS011;8286;51.274;9.542;2024-02-26T06:34:00;3.37;;;2.93;;
16352;SDS011;8286;51.274;9.542;2024-02-26T06:36:26;4.90;;;3.47;;
16352;SDS011;8286;51.274;9.542;2024-02-26T06:38:54;4.63;;;3.57;;
16352;SDS011;8286;51.274;9.542;2024-02-26T06:41:21;5.80;;;4.13;;
16352;SDS011;8286;51.274;9.542;2024-02-26T06:43:52;5.67;;;4.07;;
16352;SDS011;8286;51.274;9.542;2024-02-26T06:46:18;6.50;;;3.90;;
16352;SDS011;8286;51.274;9.542;2024-02-26T06:48:45;6.67;;;3.90;;
16352;SDS011;8286;51.274;9.542;2024-02-26T06:51:11;6.33;;;3.70;;
16352;SDS011;8286;51.274;9.542;2024-02-26T06:53:38;5.80;;;3.80;;
16352;SDS011;8286;51.274;9.542;2024-02-26T06:56:06;7.03;;;4.33;;
16352;SDS011;8286;51.274;9.542;2024-02-26T06:58:32;6.77;;;4.27;;
16352;SDS011;8286;51.274;9.542;2024-02-26T07:00:59;5.43;;;3.23;;
16352;SDS011;8286;51.274;9.542;2024-02-26T07:03:25;7.17;;;4.50;;
16352;SDS011;8286;51.274;9.542;2024-02-26T07:05:52;5.90;;;3.73;;
16352;SDS011;8286;51.274;9.542;2024-02-26T07:08:18;5.30;;;3.57;;
16352;SDS011;8286;51.274;9.542;2024-02-26T07:10:46;6.50;;;3.93;;
16352;SDS011;8286;51.274;9.542;2024-02-26T07:13:14;8.47;;;4.47;;
16352;SDS011;8286;51.274;9.542;2024-02-26T07:15:40;8.53;;;4.33;;
16352;SDS011;8286;51.274;9.542;2024-02-26T07:18:07;6.83;;;4.47;;
16352;SDS011;8286;51.274;9.542;2024-02-26T07:20:33;8.13;;;4.93;;
16352;SDS011;8286;51.274;9.542;2024-02-26T07:23:00;8.20;;;4.80;;
16352;SDS011;8286;51.274;9.542;2024-02-26T07:25:28;8.33;;;5.60;;
16352;SDS011;8286;51.274;9.542;2024-02-26T07:27:54;9.63;;;6.50;;
16352;SDS011;8286;51.274;9.542;2024-02-26T07:30:22;10.13;;;5.50;;
16352;SDS011;8286;51.274;9.542;2024-02-26T07:32:49;10.67;;;6.70;;
16352;SDS011;8286;51.274;9.542;2024-02-26T07:35:16;11.70;;;6.53;;
16352;SDS011;8286;51.274;9.542;2024-02-26T07:37:43;11.10;;;6.87;;
16352;SDS011;8286;51.274;9.542;2024-02-26T07:40:10;12.40;;;7.60;;
16352;SDS011;8286;51.274;9.542;2024-02-26T07:42:37;10.33;;;6.27;;
16352;SDS011;8286;51.274;9.542;2024-02-26T07:45:04;10.73;;;6.13;;
16352;SDS011;8286;51.274;9.542;2024-02-26T07:47:33;13.00;;;5.83;;
16352;SDS011;8286;51.274;9.542;2024-02-26T07:49:59;11.90;;;6.23;;
16352;SDS011;8286;51.274;9.542;2024-02-26T07:52:26;11.37;;;5.80;;
16352;SDS011;8286;51.274;9.542;2024-02-26T07:54:52;12.17;;;6.67;;
16352;SDS011;8286;51.274;9.542;2024-02-26T07:57:19;12.37;;;6.27;;
16352;SDS011;8286;51.274;9.542;2024-02-26T07:59:46;11.27;;;6.23;;
16352;SDS011;8286;51.274;9.542;2024-02-26T08:02:14;12.37;;;6.60;;
16352;SDS011;8286;51.274;9.542;2024-02-26T08:04:42;11.63;;;6.23;;
16352;SDS011;8286;51.274;9.542;2024-02-26T08:07:09;11.10;;;7.13;;
16352;SDS011;8286;51.274;9.542;2024-02-26T08:09:35;12.57;;;7.03;;
16352;SDS011;8286;51.274;9.542;2024-02-26T08:12:02;9.07;;;6.10;;
16352;SDS011;8286;51.274;9.542;2024-02-26T08:14:29;14.33;;;7.13;;
16352;SDS011;8286;51.274;9.542;2024-02-26T08:16:57;10.50;;;6.03;;
16352;SDS011;8286;51.274;9.542;2024-02-26T08:19:23;10.30;;;6.00;;
16352;SDS011;8286;51.274;9.542;2024-02-26T08:21:51;10.90;;;6.00;;
16352;SDS011;8286;51.274;9.542;2024-02-26T08:24:18;10.93;;;6.50;;
16352;SDS011;8286;51.274;9.542;2024-02-26T08:26:44;11.43;;;6.37;;
16352;SDS011;8286;51.274;9.542;2024-02-26T08:29:11;10.43;;;6.17;;
16352;SDS011;8286;51.274;9.542;2024-02-26T08:31:37;11.17;;;6.47;;
16352;SDS011;8286;51.274;9.542;2024-02-26T08:34:04;10.40;;;6.57;;
16352;SDS011;8286;51.274;9.542;2024-02-26T08:36:32;10.57;;;6.17;;
16352;SDS011;8286;51.274;9.542;2024-02-26T08:39:01;9.10;;;6.13;;
16352;SDS011;8286;51.274;9.542;2024-02-26T08:41:27;10.77;;;6.27;;
16352;SDS011;8286;51.274;9.542;2024-02-26T08:43:54;11.37;;;7.00;;
16352;SDS011;8286;51.274;9.542;2024-02-26T08:46:20;11.53;;;6.63;;
16352;SDS011;8286;51.274;9.542;2024-02-26T08:48:47;9.60;;;6.27;;
16352;SDS011;8286;51.274;9.542;2024-02-26T08:51:14;9.63;;;6.50;;
16352;SDS011;8286;51.274;9.542;2024-02-26T08:53:41;10.37;;;6.23;;
16352;SDS011;8286;51.274;9.542;2024-02-26T08:56:09;10.53;;;6.53;;
16352;SDS011;8286;51.274;9.542;2024-02-26T08:58:36;9.77;;;6.27;;
16352;SDS011;8286;51.274;9.542;2024-02-26T09:01:02;12.57;;;7.10;;
16352;SDS011;8286;51.274;9.542;2024-02-26T09:03:29;9.60;;;6.10;;
16352;SDS011;8286;51.274;9.542;2024-02-26T09:05:56;10.60;;;6.67;;
16352;SDS011;8286;51.274;9.542;2024-02-26T09:08:23;11.47;;;7.10;;
16352;SDS011;8286;51.274;9.542;2024-02-26T09:10:49;11.27;;;6.87;;
16352;SDS011;8286;51.274;9.542;2024-02-26T09:13:17;11.13;;;6.80;;
16352;SDS011;8286;51.274;9.542;2024-02-26T09:15:44;11.73;;;6.70;;
16352;SDS011;8286;51.274;9.542;2024-02-26T09:18:10;10.47;;;6.30;;
16352;SDS011;8286;51.274;9.542;2024-02-26T09:20:38;9.97;;;6.37;;
16352;SDS011;8286;51.274;9.542;2024-02-26T09:23:04;11.13;;;6.80;;
16352;SDS011;8286;51.274;9.542;2024-02-26T09:25:31;8.73;;;6.10;;
16352;SDS011;8286;51.274;9.542;2024-02-26T09:27:58;10.63;;;6.27;;
16352;SDS011;8286;51.274;9.542;2024-02-26T09:30:26;8.73;;;5.87;;
16352;SDS011;8286;51.274;9.542;2024-02-26T09:32:52;8.83;;;5.87;;
16352;SDS011;8286;51.274;9.542;2024-02-26T09:35:19;9.03;;;6.27;;
16352;SDS011;8286;51.274;9.542;2024-02-26T09:37:46;11.73;;;6.67;;
16352;SDS011;8286;51.274;9.542;2024-02-26T09:40:14;12.17;;;6.47;;
16352;SDS011;8286;51.274;9.542;2024-02-26T09:42:42;8.90;;;6.53;;
16352;SDS011;8286;51.274;9.542;2024-02-26T09:45:10;10.37;;;6.23;;
16352;SDS011;8286;51.274;9.542;2024-02-26T09:47:39;9.33;;;6.20;;
16352;SDS011;8286;51.274;9.542;2024-02-26T09:50:06;11.33;;;6.47;;
16352;SDS011;8286;51.274;9.542;2024-02-26T09:52:37;9.33;;;5.93;;
16352;SDS011;8286;51.274;9.542;2024-02-26T09:55:04;8.43;;;6.33;;
16352;SDS011;8286;51.274;9.542;2024-02-26T09:57:30;10.93;;;6.67;;
16352;SDS011;8286;51.274;9.542;2024-02-26T09:59:58;12.03;;;6.73;;
16352;SDS011;8286;51.274;9.542;2024-02-26T10:02:26;10.73;;;6.37;;
16352;SDS011;8286;51.274;9.542;2024-02-26T10:04:55;14.63;;;6.33;;
16352;SDS011;8286;51.274;9.542;2024-02-26T10:07:23;14.03;;;6.80;;
16352;SDS011;8286;51.274;9.542;2024-02-26T10:09:50;7.23;;;5.47;;
16352;SDS011;8286;51.274;9.542;2024-02-26T10:12:16;8.40;;;5.77;;
16352;SDS011;8286;51.274;9.542;2024-02-26T10:14:43;9.57;;;6.47;;
16352;SDS011;8286;51.274;9.542;2024-02-26T10:17:10;9.63;;;5.80;;
16352;SDS011;8286;51.274;9.542;2024-02-26T10:19:36;8.93;;;6.27;;
16352;SDS011;8286;51.274;9.542;2024-02-26T10:22:04;9.50;;;6.07;;
16352;SDS011;8286;51.274;9.542;2024-02-26T10:24:31;12.20;;;6.63;;
16352;SDS011;8286;51.274;9.542;2024-02-26T10:26:57;9.13;;;6.37;;
16352;SDS011;8286;51.274;9.542;2024-02-26T10:29:24;9.50;;;6.53;;
16352;SDS011;8286;51.274;9.542;2024-02-26T10:31:51;11.07;;;6.53;;
16352;SDS011;8286;51.274;9.542;2024-02-26T10:34:18;12.90;;;6.57;;
16352;SDS011;8286;51.274;9.542;2024-02-26T10:36:45;11.10;;;6.37;;
16352;SDS011;8286;51.274;9.542;2024-02-26T10:39:13;10.50;;;6.03;;
16352;SDS011;8286;51.274;9.542;2024-02-26T10:41:39;11.57;;;6.57;;
16352;SDS011;8286;51.274;9.542;2024-02-26T10:44:08;10.20;;;6.03;;
16352;SDS011;8286;51.274;9.542;2024-02-26T10:46:37;9.70;;;6.33;;
16352;SDS011;8286;51.274;9.542;2024-02-26T10:49:04;8.53;;;5.83;;
16352;SDS011;8286;51.274;9.542;2024-02-26T10:51:30;8.67;;;5.97;;
16352;SDS011;8286;51.274;9.542;2024-02-26T10:53:57;9.60;;;6.20;;
16352;SDS011;8286;51.274;9.542;2024-02-26T10:56:28;8.63;;;6.30;;
16352;SDS011;8286;51.274;9.542;2024-02-26T10:58:55;9.30;;;6.73;;
16352;SDS011;8286;51.274;9.542;2024-02-26T11:01:22;10.07;;;5.70;;
16352;SDS011;8286;51.274;9.542;2024-02-26T11:03:50;8.87;;;5.90;;
16352;SDS011;8286;51.274;9.542;2024-02-26T11:06:18;9.47;;;5.90;;
16352;SDS011;8286;51.274;9.542;2024-02-26T11:08:47;7.73;;;5.53;;
16352;SDS011;8286;51.274;9.542;2024-02-26T11:11:14;6.77;;;5.20;;
16352;SDS011;8286;51.274;9.542;2024-02-26T11:13:42;7.53;;;5.50;;
16352;SDS011;8286;51.274;9.542;2024-02-26T11:16:13;9.17;;;6.30;;
16352;SDS011;8286;51.274;9.542;2024-02-26T11:18:39;10.27;;;6.13;;
16352;SDS011;8286;51.274;9.542;2024-02-26T11:21:06;9.43;;;6.50;;
16352;SDS011;8286;51.274;9.542;2024-02-26T11:23:33;9.23;;;6.07;;
16352;SDS011;8286;51.274;9.542;2024-02-26T11:26:02;11.40;;;6.10;;
16352;SDS011;8286;51.274;9.542;2024-02-26T11:28:30;8.17;;;5.50;;
16352;SDS011;8286;51.274;9.542;2024-02-26T11:31:00;11.80;;;6.13;;
16352;SDS011;8286;51.274;9.542;2024-02-26T11:33:29;12.00;;;5.93;;
16352;SDS011;8286;51.274;9.542;2024-02-26T11:35:55;8.87;;;5.47;;
16352;SDS011;8286;51.274;9.542;2024-02-26T11:38:25;8.33;;;5.40;;
16352;SDS011;8286;51.274;9.542;2024-02-26T11:40:54;8.77;;;5.43;;
16352;SDS011;8286;51.274;9.542;2024-02-26T11:43:23;7.97;;;5.60;;
16352;SDS011;8286;51.274;9.542;2024-02-26T11:45:50;8.63;;;5.80;;
16352;SDS011;8286;51.274;9.542;2024-02-26T11:48:22;10.47;;;6.17;;
16352;SDS011;8286;51.274;9.542;2024-02-26T11:50:50;7.87;;;6.00;;
16352;SDS011;8286;51.274;9.542;2024-02-26T11:53:21;10.27;;;6.40;;
16352;SDS011;8286;51.274;9.542;2024-02-26T11:55:48;9.00;;;6.27;;
16352;SDS011;8286;51.274;9.542;2024-02-26T11:58:48;9.23;;;6.03;;
16352;SDS011;8286;51.274;9.542;2024-02-26T12:04:21;9.90;;;6.20;;
16352;SDS011;8286;51.274;9.542;2024-02-26T12:06:52;7.93;;;5.57;;
16352;SDS011;8286;51.274;9.542;2024-02-26T12:09:30;8.77;;;6.10;;
16352;SDS011;8286;51.274;9.542;2024-02-26T12:12:01;9.30;;;5.97;;
16352;SDS011;8286;51.274;9.542;2024-02-26T12:14:28;10.03;;;5.93;;
16352;SDS011;8286;51.274;9.542;2024-02-26T12:16:55;10.30;;;5.90;;
16352;SDS011;8286;51.274;9.542;2024-02-26T12:19:24;10.80;;;6.30;;
16352;SDS011;8286;51.274;9.542;2024-02-26T12:21:51;12.43;;;5.83;;
16352;SDS011;8286;51.274;9.542;2024-02-26T12:24:19;8.40;;;5.40;;
16352;SDS011;8286;51.274;9.542;2024-02-26T12:26:46;11.07;;;5.83;;
16352;SDS011;8286;51.274;9.542;2024-02-26T12:29:12;8.43;;;5.40;;
16352;SDS011;8286;51.274;9.542;2024-02-26T12:31:39;7.20;;;5.57;;
16352;SDS011;8286;51.274;9.542;2024-02-26T12:34:06;8.27;;;5.83;;
16352;SDS011;8286;51.274;9.542;2024-02-26T12:36:36;8.87;;;6.03;;
16352;SDS011;8286;51.274;9.542;2024-02-26T12:39:03;12.10;;;6.50;;
16352;SDS011;8286;51.274;9.542;2024-02-26T12:41:30;9.60;;;5.87;;
16352;SDS011;8286;51.274;9.542;2024-02-26T12:43:57;9.57;;;5.40;;
16352;SDS011;8286;51.274;9.542;2024-02-26T12:46:24;8.63;;;6.30;;
16352;SDS011;8286;51.274;9.542;2024-02-26T12:48:51;8.50;;;5.53;;
16352;SDS011;8286;51.274;9.542;2024-02-26T12:51:19;10.00;;;6.00;;
16352;SDS011;8286;51.274;9.542;2024-02-26T12:53:47;9.57;;;5.53;;
16352;SDS011;8286;51.274;9.542;2024-02-26T12:56:15;8.87;;;6.03;;
16352;SDS011;8286;51.274;9.542;2024-02-26T12:58:42;7.50;;;5.33;;
16352;SDS011;8286;51.274;9.542;2024-02-26T13:01:08;8.60;;;5.33;;
16352;SDS011;8286;51.274;9.542;2024-02-26T13:03:40;6.97;;;5.13;;
16352;SDS011;8286;51.274;9.542;2024-02-26T13:06:07;8.10;;;5.33;;
16352;SDS011;8286;51.274;9.542;2024-02-26T13:08:34;9.03;;;5.73;;
16352;SDS011;8286;51.274;9.542;2024-02-26T13:11:02;8.13;;;5.57;;
16352;SDS011;8286;51.274;9.542;2024-02-26T13:13:29;10.53;;;4.80;;
16352;SDS011;8286;51.274;9.542;2024-02-26T13:16:01;7.80;;;4.83;;
16352;SDS011;8286;51.274;9.542;2024-02-26T13:18:28;5.53;;;4.63;;
16352;SDS011;8286;51.274;9.542;2024-02-26T13:21:06;7.83;;;5.73;;
16352;SDS011;8286;51.274;9.542;2024-02-26T13:23:34;6.97;;;5.10;;
16352;SDS011;8286;51.274;9.542;2024-02-26T13:26:00;10.53;;;5.00;;
16352;SDS011;8286;51.274;9.542;2024-02-26T13:28:28;7.97;;;5.60;;
16352;SDS011;8286;51.274;9.542;2024-02-26T13:30:55;6.47;;;4.80;;
16352;SDS011;8286;51.274;9.542;2024-02-26T13:33:23;6.30;;;4.63;;
16352;SDS011;8286;51.274;9.542;2024-02-26T13:35:50;6.63;;;4.67;;
16352;SDS011;8286;51.274;9.542;2024-02-26T13:38:16;6.83;;;4.97;;
16352;SDS011;8286;51.274;9.542;2024-02-26T13:40:43;5.80;;;4.50;;
16352;SDS011;8286;51.274;9.542;2024-02-26T13:43:09;8.70;;;4.70;;
16352;SDS011;8286;51.274;9.542;2024-02-26T13:45:38;6.47;;;5.17;;
16352;SDS011;8286;51.274;9.542;2024-02-26T13:48:05;6.97;;;5.10;;
16352;SDS011;8286;51.274;9.542;2024-02-26T13:50:32;7.03;;;4.77;;
16352;SDS011;8286;51.274;9.542;2024-02-26T13:52:59;11.13;;;5.07;;
16352;SDS011;8286;51.274;9.542;2024-02-26T13:55:25;5.70;;;4.53;;
16352;SDS011;8286;51.274;9.542;2024-02-26T13:57:53;7.87;;;4.87;;
16352;SDS011;8286;51.274;9.542;2024-02-26T14:00:20;7.00;;;4.80;;
16352;SDS011;8286;51.274;9.542;2024-02-26T14:02:48;5.63;;;4.40;;
16352;SDS011;8286;51.274;9.542;2024-02-26T14:05:14;6.73;;;3.93;;
16352;SDS011;8286;51.274;9.542;2024-02-26T14:07:41;7.07;;;4.37;;
16352;SDS011;8286;51.274;9.542;2024-02-26T14:10:08;5.37;;;3.90;;
16352;SDS011;8286;51.274;9.542;2024-02-26T14:12:35;5.03;;;3.87;;
16352;SDS011;8286;51.274;9.542;2024-02-26T14:15:02;6.03;;;3.90;;
16352;SDS011;8286;51.274;9.542;2024-02-26T14:17:30;5.50;;;4.17;;
16352;SDS011;8286;51.274;9.542;2024-02-26T14:19:58;4.73;;;3.80;;
16352;SDS011;8286;51.274;9.542;2024-02-26T14:22:24;6.20;;;4.40;;
16352;SDS011;8286;51.274;9.542;2024-02-26T14:24:51;4.93;;;4.13;;
16352;SDS011;8286;51.274;9.542;2024-02-26T14:27:18;6.03;;;4.33;;
16352;SDS011;8286;51.274;9.542;2024-02-26T14:29:47;7.13;;;4.27;;
16352;SDS011;8286;51.274;9.542;2024-02-26T14:32:14;4.80;;;3.93;;
16352;SDS011;8286;51.274;9.542;2024-02-26T14:34:41;5.67;;;4.10;;
16352;SDS011;8286;51.274;9.542;2024-02-26T14:37:09;5.63;;;4.50;;
16352;SDS011;8286;51.274;9.542;2024-02-26T14:39:37;7.07;;;4.67;;
16352;SDS011;8286;51.274;9.542;2024-02-26T14:42:03;8.80;;;4.80;;
16352;SDS011;8286;51.274;9.542;2024-02-26T14:44:31;7.63;;;4.80;;
16352;SDS011;8286;51.274;9.542;2024-02-26T14:46:58;9.13;;;4.93;;
16352;SDS011;8286;51.274;9.542;2024-02-26T14:49:24;9.23;;;6.20;;
16352;SDS011;8286;51.274;9.542;2024-02-26T14:51:51;10.70;;;6.37;;
16352;SDS011;8286;51.274;9.542;2024-02-26T14:54:19;9.50;;;5.93;;
16352;SDS011;8286;51.274;9.542;2024-02-26T14:56:46;8.73;;;6.10;;
16352;SDS011;8286;51.274;9.542;2024-02-26T14:59:13;12.93;;;6.63;;
16352;SDS011;8286;51.274;9.542;2024-02-26T15:01:39;10.47;;;5.73;;